12CN weather

Richter Airport
Maxwell, California, United States

Public forecast

Using degrees Fahrenheit for public forecast. Weather courtesy of forecast.io.

Closest aviation weather report (METAR) to Richter Airport

Closest report is Oroville Municipal Airport, 26.5 nm (49.0 km) ENE. Retrieved 2019/10/17 05:53 UTC (38 minutes ago):

KOVE 170553Z AUTO 14014KT 10SM CLR 17/06 A2980 RMK AO2 SLP092 T01720056 10244 20172 56004

Closest aviation forecast (TAF) to Richter Airport

Closest forecast is Beale Air Force Base, 32.6 nm (60.4 km) ESE. Retrieved 2019-10-17 03:04 UTC (3 hours ago):

TAF KBAB 170301Z 1703/1809 18009KT 9999 BKN200 QNH2980INS BECMG 1708/1709 16009KT 9999 SCT009 BKN015 QNH2984INS TEMPO 1709/1713 8000 -SHRA BKN009 BECMG 1720/1721 33009KT 9999 FEW050 QNH2990INS TX22/1721Z TN14/1711Z